Time;durP1;ratioP1;P1;durP2;ratioP2;P2;SDS_P1;SDS_P2;PMS_P1;PMS_P2;Temp;Humidity;BMP_temperature;BMP_pressure;BME280_temperature;BME280_humidity;BME280_pressure;Samples;Min_cycle;Max_cycle;Signal;HPM_P1;HPM_P2
2021/11/24 00:00:29;;;;;;;0.30;0.30;;;;;;;;;;1836233;77;26272;-28
2021/11/24 00:02:57;;;;;;;0.40;0.40;;;;;;;;;;1839880;77;27587;-29
2021/11/24 00:05:24;;;;;;;0.30;0.30;;;;;;;;;;1835025;77;26388;-28
2021/11/24 00:07:51;;;;;;;0.20;0.20;;;;;;;;;;1831917;77;26727;-29
2021/11/24 00:10:19;;;;;;;0.30;0.30;;;;;;;;;;1837697;77;26258;-29
2021/11/24 00:12:47;;;;;;;0.30;0.30;;;;;;;;;;1823937;77;26768;-29
2021/11/24 00:15:15;;;;;;;0.20;0.20;;;;;;;;;;1818781;77;26309;-28
2021/11/24 00:17:42;;;;;;;0.30;0.30;;;;;;;;;;1827065;77;26274;-28
2021/11/24 00:20:10;;;;;;;0.40;0.40;;;;;;;;;;1839416;77;26664;-29
2021/11/24 00:22:37;;;;;;;0.30;0.30;;;;;;;;;;1830144;77;26232;-29
2021/11/24 00:25:06;;;;;;;0.25;0.25;;;;;;;;;;1842599;77;26724;-29
2021/11/24 00:27:33;;;;;;;0.10;0.10;;;;;;;;;;1840464;77;26214;-28
2021/11/24 00:30:00;;;;;;;0.20;0.20;;;;;;;;;;1829841;77;26287;-29
2021/11/24 00:32:28;;;;;;;0.20;0.20;;;;;;;;;;1843750;77;26276;-29
2021/11/24 00:34:55;;;;;;;0.20;0.20;;;;;;;;;;1845380;77;26546;-29
2021/11/24 00:37:22;;;;;;;0.20;0.20;;;;;;;;;;1841389;77;26373;-28
2021/11/24 00:39:50;;;;;;;1.55;0.30;;;;;;;;;;1845365;77;27353;-29
2021/11/24 00:42:17;;;;;;;0.30;0.30;;;;;;;;;;1843399;77;26281;-29
2021/11/24 00:44:44;;;;;;;0.30;0.20;;;;;;;;;;1842826;77;26296;-28
2021/11/24 00:47:12;;;;;;;0.28;0.28;;;;;;;;;;1836266;77;26821;-28
2021/11/24 00:49:39;;;;;;;0.30;0.30;;;;;;;;;;1844154;77;26287;-28
2021/11/24 00:52:07;;;;;;;0.30;0.30;;;;;;;;;;1842609;77;26735;-29
2021/11/24 00:54:35;;;;;;;0.20;0.20;;;;;;;;;;1842064;77;26283;-28
2021/11/24 00:57:02;;;;;;;0.13;0.13;;;;;;;;;;1829356;77;26303;-30
2021/11/24 00:59:30;;;;;;;0.30;0.30;;;;;;;;;;1823439;77;26294;-28
2021/11/24 01:01:57;;;;;;;0.30;0.30;;;;;;;;;;1840808;77;26229;-30
2021/11/24 01:04:24;;;;;;;0.10;0.10;;;;;;;;;;1843113;77;26386;-28
2021/11/24 01:06:52;;;;;;;0.20;0.20;;;;;;;;;;1837410;77;26281;-29
2021/11/24 01:09:19;;;;;;;0.30;0.30;;;;;;;;;;1842994;77;26273;-29
2021/11/24 01:11:46;;;;;;;0.30;0.30;;;;;;;;;;1835964;77;26787;-30
2021/11/24 01:14:14;;;;;;;0.20;0.20;;;;;;;;;;1843216;77;26209;-28
2021/11/24 01:16:42;;;;;;;0.20;0.20;;;;;;;;;;1825752;77;26328;-29
2021/11/24 01:19:10;;;;;;;0.20;0.20;;;;;;;;;;1819730;78;26712;-29
2021/11/24 01:21:37;;;;;;;0.30;0.30;;;;;;;;;;1823417;78;26371;-29
2021/11/24 01:24:05;;;;;;;0.20;0.20;;;;;;;;;;1815996;78;26300;-29
2021/11/24 01:26:32;;;;;;;0.17;0.17;;;;;;;;;;1820269;78;26701;-29
2021/11/24 01:29:00;;;;;;;0.20;0.20;;;;;;;;;;1825346;78;26291;-28
2021/11/24 01:31:27;;;;;;;0.20;0.20;;;;;;;;;;1824980;78;26268;-29
2021/11/24 01:33:54;;;;;;;0.30;0.30;;;;;;;;;;1815893;78;26404;-28
2021/11/24 01:36:22;;;;;;;0.30;0.30;;;;;;;;;;1824859;78;26354;-28
2021/11/24 01:38:49;;;;;;;0.30;0.30;;;;;;;;;;1832032;78;26709;-29
2021/11/24 01:41:17;;;;;;;0.23;0.23;;;;;;;;;;1811387;78;26369;-28
2021/11/24 01:43:44;;;;;;;0.30;0.30;;;;;;;;;;1827197;77;26370;-29
2021/11/24 01:46:11;;;;;;;0.17;0.17;;;;;;;;;;1817823;78;26711;-29
2021/11/24 01:48:38;;;;;;;0.10;0.10;;;;;;;;;;1828879;78;26343;-28
2021/11/24 01:51:06;;;;;;;0.20;0.20;;;;;;;;;;1831063;78;26222;-29
2021/11/24 01:53:33;;;;;;;0.20;0.20;;;;;;;;;;1823868;78;26339;-28
2021/11/24 01:56:01;;;;;;;0.20;0.20;;;;;;;;;;1823232;78;26256;-28
2021/11/24 01:58:28;;;;;;;0.30;0.30;;;;;;;;;;1814965;78;26289;-28
2021/11/24 02:00:56;;;;;;;0.10;0.10;;;;;;;;;;1823354;78;26380;-29
2021/11/24 02:03:24;;;;;;;1.75;0.20;;;;;;;;;;1821488;78;26381;-29
2021/11/24 02:05:51;;;;;;;0.40;0.20;;;;;;;;;;1820883;78;26287;-29
2021/11/24 02:08:18;;;;;;;0.20;0.20;;;;;;;;;;1824518;78;26406;-28
2021/11/24 02:10:45;;;;;;;0.20;0.20;;;;;;;;;;1822955;78;26268;-29
2021/11/24 02:13:13;;;;;;;0.30;0.30;;;;;;;;;;1822306;78;26280;-28
2021/11/24 02:15:40;;;;;;;0.53;0.20;;;;;;;;;;1820733;78;26986;-28
2021/11/24 02:18:08;;;;;;;1.10;0.20;;;;;;;;;;1831055;78;26303;-29
2021/11/24 02:20:43;;;;;;;0.20;0.20;;;;;;;;;;1828113;78;26743;-29
2021/11/24 02:23:11;;;;;;;0.17;0.17;;;;;;;;;;1824656;78;26960;-29
2021/11/24 02:25:40;;;;;;;1.37;0.37;;;;;;;;;;1827688;78;26361;-28
2021/11/24 02:28:07;;;;;;;0.10;0.10;;;;;;;;;;1832258;78;26213;-28
2021/11/24 02:30:35;;;;;;;0.20;0.10;;;;;;;;;;1835788;78;26767;-28
2021/11/24 02:33:03;;;;;;;0.20;0.20;;;;;;;;;;1832691;78;26284;-28
2021/11/24 02:35:30;;;;;;;0.08;0.08;;;;;;;;;;1831879;78;26272;-28
2021/11/24 02:37:58;;;;;;;0.20;0.20;;;;;;;;;;1822197;78;26228;-29
2021/11/24 02:40:29;;;;;;;0.20;0.20;;;;;;;;;;1815693;78;26390;-28
2021/11/24 02:42:57;;;;;;;0.10;0.10;;;;;;;;;;1815867;78;26292;-28
2021/11/24 02:45:25;;;;;;;0.75;0.17;;;;;;;;;;1833604;78;26760;-29
2021/11/24 02:47:52;;;;;;;0.20;0.20;;;;;;;;;;1825217;78;26261;-28
2021/11/24 02:50:19;;;;;;;0.20;0.20;;;;;;;;;;1828817;78;26268;-28
2021/11/24 02:52:47;;;;;;;0.10;0.10;;;;;;;;;;1826831;78;26271;-29
2021/11/24 02:55:15;;;;;;;0.10;0.10;;;;;;;;;;1824744;78;26296;-28
2021/11/24 02:57:44;;;;;;;0.17;0.17;;;;;;;;;;1830182;78;26285;-29
2021/11/24 03:00:13;;;;;;;0.20;0.20;;;;;;;;;;1822825;78;26299;-28
2021/11/24 03:02:40;;;;;;;0.20;0.20;;;;;;;;;;1824704;78;26300;-29
2021/11/24 03:05:09;;;;;;;0.13;0.13;;;;;;;;;;1824170;78;26841;-29
2021/11/24 03:07:37;;;;;;;0.20;0.20;;;;;;;;;;1828968;78;26257;-29
2021/11/24 03:10:05;;;;;;;0.30;0.30;;;;;;;;;;1823685;78;26284;-29
2021/11/24 03:12:34;;;;;;;0.28;0.28;;;;;;;;;;1830996;78;26307;-29
2021/11/24 03:15:01;;;;;;;0.23;0.20;;;;;;;;;;1820763;78;26386;-28
2021/11/24 03:17:29;;;;;;;0.20;0.20;;;;;;;;;;1836392;77;26692;-29
2021/11/24 03:19:57;;;;;;;0.20;0.20;;;;;;;;;;1838546;77;26404;-28
2021/11/24 03:22:26;;;;;;;0.20;0.20;;;;;;;;;;1830806;77;26370;-28
2021/11/24 03:24:57;;;;;;;0.10;0.10;;;;;;;;;;1832978;77;26369;-29
2021/11/24 03:27:26;;;;;;;1.30;0.20;;;;;;;;;;1831231;77;26764;-28
2021/11/24 03:29:54;;;;;;;0.20;0.20;;;;;;;;;;1841908;77;26397;-28
2021/11/24 03:32:22;;;;;;;0.20;0.20;;;;;;;;;;1843762;77;26345;-28
2021/11/24 03:34:49;;;;;;;0.25;0.25;;;;;;;;;;1832805;77;26290;-28
2021/11/24 03:37:17;;;;;;;0.15;0.15;;;;;;;;;;1834215;77;26265;-28
2021/11/24 03:39:46;;;;;;;0.20;0.20;;;;;;;;;;1833895;77;26759;-28
2021/11/24 03:42:14;;;;;;;0.20;0.20;;;;;;;;;;1842268;77;26350;-28
2021/11/24 03:44:42;;;;;;;0.20;0.20;;;;;;;;;;1844247;77;26271;-29
2021/11/24 03:47:09;;;;;;;0.20;0.20;;;;;;;;;;1831484;77;26287;-29
2021/11/24 03:49:37;;;;;;;0.10;0.10;;;;;;;;;;1830314;77;26279;-29
2021/11/24 03:52:05;;;;;;;0.23;0.23;;;;;;;;;;1829840;77;26676;-30
2021/11/24 03:54:33;;;;;;;0.20;0.20;;;;;;;;;;1844498;77;26299;-29
2021/11/24 03:57:00;;;;;;;0.10;0.10;;;;;;;;;;1842355;77;26307;-29
2021/11/24 03:59:28;;;;;;;0.28;0.28;;;;;;;;;;1839811;77;26824;-28
2021/11/24 04:01:55;;;;;;;0.20;0.20;;;;;;;;;;1844574;77;26284;-28
2021/11/24 04:04:23;;;;;;;0.13;0.13;;;;;;;;;;1842441;77;26402;-28
2021/11/24 04:06:50;;;;;;;0.28;0.28;;;;;;;;;;1836632;77;26280;-29
2021/11/24 04:09:17;;;;;;;0.13;0.10;;;;;;;;;;1838948;76;26256;-28
2021/11/24 04:11:44;;;;;;;0.28;0.20;;;;;;;;;;1831443;77;26321;-28
2021/11/24 04:14:12;;;;;;;0.20;0.20;;;;;;;;;;1836005;77;26769;-29
2021/11/24 04:16:39;;;;;;;0.17;0.17;;;;;;;;;;1840482;77;26320;-28
2021/11/24 04:19:07;;;;;;;0.10;0.10;;;;;;;;;;1840640;77;26406;-28
2021/11/24 04:21:34;;;;;;;0.25;0.25;;;;;;;;;;1844045;77;26306;-29
2021/11/24 04:24:01;;;;;;;0.23;0.23;;;;;;;;;;1836200;77;26656;-28
2021/11/24 04:26:28;;;;;;;0.10;0.10;;;;;;;;;;1839411;77;26363;-28
2021/11/24 04:28:56;;;;;;;0.10;0.10;;;;;;;;;;1837806;77;27254;-29
2021/11/24 04:31:23;;;;;;;0.10;0.10;;;;;;;;;;1841439;77;26347;-29
2021/11/24 04:33:50;;;;;;;0.20;0.20;;;;;;;;;;1838733;77;26740;-28
2021/11/24 04:36:18;;;;;;;1.00;0.20;;;;;;;;;;1835877;77;26756;-28
2021/11/24 04:38:45;;;;;;;0.10;0.10;;;;;;;;;;1841641;77;26280;-28
2021/11/24 04:41:12;;;;;;;0.10;0.10;;;;;;;;;;1840228;77;26304;-29
2021/11/24 04:43:44;;;;;;;0.20;0.20;;;;;;;;;;1844389;77;26335;-28
2021/11/24 04:46:09;;;;;;;0.10;0.10;;;;;;;;;;1840328;77;26876;-29
2021/11/24 04:48:37;;;;;;;0.10;0.10;;;;;;;;;;1843029;77;26300;-28
2021/11/24 04:51:05;;;;;;;0.20;0.20;;;;;;;;;;1839772;77;26378;-29
2021/11/24 04:53:33;;;;;;;0.20;0.20;;;;;;;;;;1832765;76;26336;-29
2021/11/24 04:56:00;;;;;;;0.20;0.20;;;;;;;;;;1838000;77;26303;-29
2021/11/24 04:58:28;;;;;;;0.10;0.10;;;;;;;;;;1835139;77;26311;-28
2021/11/24 05:00:55;;;;;;;0.13;0.13;;;;;;;;;;1836340;77;27286;-28
2021/11/24 05:03:23;;;;;;;0.20;0.20;;;;;;;;;;1828284;77;26417;-29
2021/11/24 05:05:50;;;;;;;0.45;0.40;;;;;;;;;;1840698;77;26589;-29
2021/11/24 05:08:17;;;;;;;0.30;0.30;;;;;;;;;;1838328;76;26354;-29
2021/11/24 05:10:46;;;;;;;0.25;0.20;;;;;;;;;;1839710;76;26327;-29
2021/11/24 05:13:13;;;;;;;0.80;0.42;;;;;;;;;;1842251;76;26367;-28
2021/11/24 05:15:43;;;;;;;3.02;0.40;;;;;;;;;;1832464;77;26277;-28
2021/11/24 05:18:21;;;;;;;1.40;0.70;;;;;;;;;;1832908;77;26433;-28
2021/11/24 05:20:40;;;;;;;0.40;0.40;;;;;;;;;;1828867;78;26782;-28
2021/11/24 05:23:12;;;;;;;2.22;0.80;;;;;;;;;;1818394;78;27337;-28
2021/11/24 05:25:37;;;;;;;2.77;1.00;;;;;;;;;;1816764;78;26275;-28
2021/11/24 05:28:04;;;;;;;1.45;1.17;;;;;;;;;;1812449;77;26239;-28
2021/11/24 05:30:32;;;;;;;1.35;1.00;;;;;;;;;;1832426;77;26716;-28
2021/11/24 05:32:59;;;;;;;2.37;1.05;;;;;;;;;;1827843;78;26354;-28
2021/11/24 05:35:28;;;;;;;10.88;1.22;;;;;;;;;;1827234;77;26303;-29
2021/11/24 05:37:56;;;;;;;4.03;1.35;;;;;;;;;;1825592;77;26218;-28
2021/11/24 05:40:23;;;;;;;1.65;1.10;;;;;;;;;;1820452;77;26272;-28
2021/11/24 05:42:50;;;;;;;4.28;1.25;;;;;;;;;;1828951;78;26823;-28
2021/11/24 05:45:38;;;;;;;4.33;1.17;;;;;;;;;;1827013;78;26351;-29
2021/11/24 05:48:03;;;;;;;5.97;1.10;;;;;;;;;;1817818;78;26306;-28
2021/11/24 05:50:28;;;;;;;6.55;1.30;;;;;;;;;;1831171;78;26765;-29
2021/11/24 05:52:56;;;;;;;6.03;1.42;;;;;;;;;;1817640;78;26248;-28
2021/11/24 05:55:24;;;;;;;6.05;1.37;;;;;;;;;;1825533;77;27064;-28
2021/11/24 05:57:51;;;;;;;2.22;1.05;;;;;;;;;;1821642;78;26283;-28
2021/11/24 06:00:19;;;;;;;4.15;1.35;;;;;;;;;;1820649;78;26308;-28
2021/11/24 06:02:47;;;;;;;7.45;1.20;;;;;;;;;;1828473;78;26398;-29
2021/11/24 06:05:15;;;;;;;1.52;1.12;;;;;;;;;;1819781;78;26400;-28
2021/11/24 06:07:42;;;;;;;2.00;1.22;;;;;;;;;;1823917;78;26258;-29
2021/11/24 06:10:10;;;;;;;2.50;1.05;;;;;;;;;;1829964;78;26325;-28
2021/11/24 06:12:38;;;;;;;3.67;1.27;;;;;;;;;;1818678;77;26981;-28
2021/11/24 06:15:06;;;;;;;4.30;1.20;;;;;;;;;;1824093;77;26320;-29
2021/11/24 06:17:33;;;;;;;3.47;1.30;;;;;;;;;;1827149;77;26725;-29
2021/11/24 06:20:01;;;;;;;2.85;1.00;;;;;;;;;;1836174;77;26270;-29
2021/11/24 06:22:28;;;;;;;5.65;1.40;;;;;;;;;;1843208;77;26720;-28
2021/11/24 06:24:55;;;;;;;1.95;0.98;;;;;;;;;;1842660;77;26273;-28
2021/11/24 06:27:23;;;;;;;2.40;1.20;;;;;;;;;;1843877;77;26838;-28
2021/11/24 06:29:50;;;;;;;4.12;1.10;;;;;;;;;;1837806;77;26770;-28
2021/11/24 06:32:17;;;;;;;1.52;1.17;;;;;;;;;;1837714;77;26256;-28
2021/11/24 06:34:45;;;;;;;7.53;1.75;;;;;;;;;;1836997;77;26775;-29
2021/11/24 06:37:12;;;;;;;5.67;1.10;;;;;;;;;;1844214;77;26205;-28
2021/11/24 06:39:39;;;;;;;3.90;1.15;;;;;;;;;;1843620;77;26249;-28
2021/11/24 06:42:07;;;;;;;0.93;0.78;;;;;;;;;;1839666;77;26832;-28
2021/11/24 06:44:34;;;;;;;2.95;0.90;;;;;;;;;;1824174;77;26316;-28
2021/11/24 06:47:02;;;;;;;3.17;1.20;;;;;;;;;;1843035;77;26280;-29
2021/11/24 06:49:29;;;;;;;1.00;0.85;;;;;;;;;;1826956;77;26296;-29
2021/11/24 06:51:56;;;;;;;1.70;0.80;;;;;;;;;;1843711;77;26684;-28
2021/11/24 06:54:23;;;;;;;4.05;0.90;;;;;;;;;;1843813;77;26292;-29
2021/11/24 06:56:51;;;;;;;2.05;0.70;;;;;;;;;;1843666;77;26252;-29
2021/11/24 06:59:18;;;;;;;2.35;1.10;;;;;;;;;;1842164;77;26294;-29
2021/11/24 07:01:46;;;;;;;1.17;0.70;;;;;;;;;;1845143;77;26312;-28
2021/11/24 07:04:13;;;;;;;0.85;0.60;;;;;;;;;;1844415;77;26768;-28
2021/11/24 07:06:40;;;;;;;1.20;0.70;;;;;;;;;;1838930;77;26267;-28
2021/11/24 07:09:13;;;;;;;2.62;0.90;;;;;;;;;;1839394;77;26284;-29
2021/11/24 07:11:41;;;;;;;1.77;1.00;;;;;;;;;;1838442;77;26331;-28
2021/11/24 07:14:08;;;;;;;0.60;0.60;;;;;;;;;;1839134;77;26727;-28
2021/11/24 07:16:37;;;;;;;1.05;0.72;;;;;;;;;;1843025;77;26287;-28
2021/11/24 07:19:06;;;;;;;0.62;0.60;;;;;;;;;;1837794;77;26314;-28
2021/11/24 07:21:34;;;;;;;0.90;0.60;;;;;;;;;;1833109;78;26035;-28
2021/11/24 07:24:01;;;;;;;0.65;0.60;;;;;;;;;;1827582;78;26712;-28
2021/11/24 07:26:28;;;;;;;3.80;0.60;;;;;;;;;;1817867;78;26264;-28
2021/11/24 07:28:56;;;;;;;0.80;0.53;;;;;;;;;;1825231;78;26330;-28
2021/11/24 07:31:23;;;;;;;0.45;0.45;;;;;;;;;;1822223;78;26807;-29
2021/11/24 07:33:50;;;;;;;0.65;0.60;;;;;;;;;;1829655;78;26394;-28
2021/11/24 07:36:18;;;;;;;0.50;0.50;;;;;;;;;;1817324;78;26363;-28
2021/11/24 07:38:45;;;;;;;0.33;0.33;;;;;;;;;;1822059;78;26366;-28
2021/11/24 07:41:12;;;;;;;0.65;0.50;;;;;;;;;;1825340;78;26975;-28
2021/11/24 07:43:40;;;;;;;1.27;0.47;;;;;;;;;;1830321;78;26296;-28
2021/11/24 07:46:07;;;;;;;1.80;0.45;;;;;;;;;;1814376;78;26288;-29
2021/11/24 07:48:35;;;;;;;0.50;0.50;;;;;;;;;;1821261;78;26299;-29
2021/11/24 07:51:02;;;;;;;0.57;0.40;;;;;;;;;;1822075;78;26265;-28
2021/11/24 07:53:30;;;;;;;0.50;0.40;;;;;;;;;;1831935;78;26260;-29
2021/11/24 07:55:57;;;;;;;0.75;0.40;;;;;;;;;;1822124;78;26772;-29
2021/11/24 07:58:24;;;;;;;0.40;0.40;;;;;;;;;;1826355;78;26370;-28
2021/11/24 08:00:52;;;;;;;0.42;0.42;;;;;;;;;;1824340;77;26276;-29
2021/11/24 08:03:19;;;;;;;0.30;0.30;;;;;;;;;;1819909;77;26401;-28
2021/11/24 08:05:46;;;;;;;0.72;0.47;;;;;;;;;;1821603;78;26359;-28
2021/11/24 08:08:13;;;;;;;0.40;0.40;;;;;;;;;;1825040;78;26273;-28
2021/11/24 08:10:41;;;;;;;0.20;0.20;;;;;;;;;;1826815;77;26273;-28
2021/11/24 08:13:08;;;;;;;0.30;0.30;;;;;;;;;;1827020;78;26895;-28
2021/11/24 08:15:35;;;;;;;0.30;0.30;;;;;;;;;;1829130;78;26260;-29
2021/11/24 08:18:03;;;;;;;0.80;0.35;;;;;;;;;;1822926;78;26373;-31
2021/11/24 08:20:30;;;;;;;0.42;0.40;;;;;;;;;;1838856;77;26389;-30
2021/11/24 08:22:57;;;;;;;1.27;0.25;;;;;;;;;;1840211;77;26361;-30
2021/11/24 08:25:25;;;;;;;0.40;0.40;;;;;;;;;;1838035;77;26362;-29
2021/11/24 08:27:52;;;;;;;0.65;0.35;;;;;;;;;;1833525;77;26275;-28
2021/11/24 08:30:20;;;;;;;0.90;0.40;;;;;;;;;;1843184;77;26282;-28
2021/11/24 08:32:47;;;;;;;0.20;0.20;;;;;;;;;;1841157;77;26960;-29
2021/11/24 08:35:15;;;;;;;1.17;0.65;;;;;;;;;;1845010;77;26330;-28
2021/11/24 08:37:43;;;;;;;0.45;0.40;;;;;;;;;;1843874;77;26856;-29
2021/11/24 08:40:10;;;;;;;0.30;0.30;;;;;;;;;;1842081;77;23050;-26
2021/11/24 08:42:38;;;;;;;1.22;0.42;;;;;;;;;;1839582;77;39235;-28
2021/11/24 08:45:07;;;;;;;2.70;0.62;;;;;;;;;;1829982;77;26331;-44
2021/11/24 08:47:35;;;;;;;1.25;0.40;;;;;;;;;;1827475;77;26268;-29
2021/11/24 08:50:04;;;;;;;1.12;0.40;;;;;;;;;;1843083;77;26673;-30
2021/11/24 08:52:31;;;;;;;1.80;0.40;;;;;;;;;;1837265;77;26850;-28
2021/11/24 08:54:58;;;;;;;1.85;0.37;;;;;;;;;;1842561;77;26770;-30
2021/11/24 08:57:26;;;;;;;1.32;0.33;;;;;;;;;;1839203;77;26222;-29
2021/11/24 08:59:53;;;;;;;1.35;0.40;;;;;;;;;;1822710;77;28217;-27
2021/11/24 09:02:23;;;;;;;1.45;0.40;;;;;;;;;;1840897;77;26822;-26
2021/11/24 09:04:49;;;;;;;3.17;0.40;;;;;;;;;;1829630;77;26829;-26
2021/11/24 09:07:16;;;;;;;0.42;0.40;;;;;;;;;;1837293;77;26565;-26
2021/11/24 09:09:44;;;;;;;0.30;0.30;;;;;;;;;;1831449;77;26272;-25
2021/11/24 09:12:11;;;;;;;0.30;0.25;;;;;;;;;;1837546;77;26385;-26
2021/11/24 09:14:38;;;;;;;19.42;1.47;;;;;;;;;;1841955;77;26280;-29
2021/11/24 09:17:06;;;;;;;0.30;0.30;;;;;;;;;;1834634;77;27316;-26
2021/11/24 09:19:33;;;;;;;0.40;0.33;;;;;;;;;;1831819;77;26398;-26
2021/11/24 09:22:01;;;;;;;0.45;0.40;;;;;;;;;;1831449;78;26853;-28
2021/11/24 09:24:28;;;;;;;0.60;0.37;;;;;;;;;;1824457;78;26241;-32
2021/11/24 09:26:58;;;;;;;3.77;0.60;;;;;;;;;;1824006;78;26834;-28
2021/11/24 09:29:25;;;;;;;0.33;0.33;;;;;;;;;;1827694;78;27029;-28
2021/11/24 09:31:53;;;;;;;0.20;0.20;;;;;;;;;;1824833;78;26375;-31
2021/11/24 09:34:21;;;;;;;0.30;0.30;;;;;;;;;;1823471;78;26288;-30
2021/11/24 09:36:48;;;;;;;0.30;0.30;;;;;;;;;;1831241;78;26299;-31
2021/11/24 09:39:16;;;;;;;0.47;0.30;;;;;;;;;;1832321;78;26666;-30
2021/11/24 09:41:44;;;;;;;1.12;0.25;;;;;;;;;;1822130;78;26244;-30
2021/11/24 09:44:12;;;;;;;0.33;0.30;;;;;;;;;;1819098;78;26396;-30
2021/11/24 09:46:46;;;;;;;0.30;0.30;;;;;;;;;;1822230;78;26268;-30
2021/11/24 09:49:15;;;;;;;0.42;0.30;;;;;;;;;;1826482;78;26272;-30
2021/11/24 09:51:43;;;;;;;0.20;0.20;;;;;;;;;;1817836;78;26297;-31
2021/11/24 09:54:11;;;;;;;0.30;0.25;;;;;;;;;;1829827;78;26282;-28
2021/11/24 09:56:40;;;;;;;0.20;0.20;;;;;;;;;;1826861;78;26277;-26
2021/11/24 09:59:08;;;;;;;0.20;0.20;;;;;;;;;;1820531;78;26288;-26
2021/11/24 10:01:37;;;;;;;0.65;0.20;;;;;;;;;;1829088;78;26732;-29
2021/11/24 10:04:04;;;;;;;0.20;0.20;;;;;;;;;;1829136;77;26897;-30
2021/11/24 10:06:34;;;;;;;1.55;0.57;;;;;;;;;;1826737;78;26365;-29
2021/11/24 10:09:02;;;;;;;0.40;0.40;;;;;;;;;;1827311;78;26783;-28
2021/11/24 10:11:29;;;;;;;3.72;0.35;;;;;;;;;;1828075;77;26324;-28
2021/11/24 10:13:57;;;;;;;0.30;0.30;;;;;;;;;;1818746;78;26209;-28
2021/11/24 10:16:26;;;;;;;0.20;0.20;;;;;;;;;;1825538;78;26374;-28
2021/11/24 10:18:57;;;;;;;0.20;0.20;;;;;;;;;;1832114;78;26375;-29
2021/11/24 10:21:25;;;;;;;0.35;0.35;;;;;;;;;;1836179;76;26336;-34
2021/11/24 10:23:53;;;;;;;0.53;0.25;;;;;;;;;;1837125;76;26339;-36
2021/11/24 10:29:15;;;;;;;0.98;0.30;;;;;;;;;;1885335;74;27008;-35
2021/11/24 10:31:44;;;;;;;0.47;0.30;;;;;;;;;;1875979;75;26363;-32
2021/11/24 10:34:13;;;;;;;0.30;0.30;;;;;;;;;;1868407;75;26248;-33
2021/11/24 10:36:50;;;;;;;0.30;0.30;;;;;;;;;;1878785;75;26816;-32
2021/11/24 10:39:18;;;;;;;0.33;0.33;;;;;;;;;;1862842;75;26312;-33
2021/11/24 10:41:46;;;;;;;0.80;0.50;;;;;;;;;;1880505;75;26237;-32
2021/11/24 10:44:16;;;;;;;0.57;0.35;;;;;;;;;;1870888;75;26423;-33
2021/11/24 10:46:43;;;;;;;0.68;0.20;;;;;;;;;;1880534;75;26241;-32
2021/11/24 10:49:11;;;;;;;0.50;0.30;;;;;;;;;;1886378;75;26351;-32
2021/11/24 10:51:40;;;;;;;0.30;0.30;;;;;;;;;;1881322;75;26240;-33
2021/11/24 10:54:09;;;;;;;0.30;0.30;;;;;;;;;;1887949;75;26257;-35
2021/11/24 10:56:38;;;;;;;2.58;0.30;;;;;;;;;;1867666;75;26362;-31
2021/11/24 10:59:16;;;;;;;0.53;0.40;;;;;;;;;;1876644;74;26296;-31
2021/11/24 11:01:44;;;;;;;1.20;0.30;;;;;;;;;;1883627;75;26833;-35
2021/11/24 11:04:12;;;;;;;0.78;0.30;;;;;;;;;;1865461;75;26748;-32
2021/11/24 11:06:43;;;;;;;0.40;0.40;;;;;;;;;;1825754;77;26890;-33
2021/11/24 11:09:11;;;;;;;0.30;0.30;;;;;;;;;;1830773;77;26784;-34
2021/11/24 11:11:39;;;;;;;0.30;0.30;;;;;;;;;;1827561;77;26357;-32
2021/11/24 11:14:18;;;;;;;0.40;0.35;;;;;;;;;;1834944;77;26579;-32
2021/11/24 11:16:49;;;;;;;0.37;0.37;;;;;;;;;;1832232;77;26342;-34
2021/11/24 11:19:35;;;;;;;0.20;0.20;;;;;;;;;;1825318;77;26291;-34
2021/11/24 11:22:03;;;;;;;0.25;0.25;;;;;;;;;;1830301;77;26382;-32
2021/11/24 11:24:30;;;;;;;0.40;0.40;;;;;;;;;;1833299;77;26696;-33
2021/11/24 11:26:57;;;;;;;0.53;0.28;;;;;;;;;;1834103;77;26249;-30
2021/11/24 11:29:25;;;;;;;1.25;0.37;;;;;;;;;;1833577;77;26359;-32
2021/11/24 11:31:53;;;;;;;0.55;0.30;;;;;;;;;;1832944;77;26386;-31
2021/11/24 11:34:21;;;;;;;0.60;0.30;;;;;;;;;;1834652;77;26268;-30
2021/11/24 11:36:48;;;;;;;1.10;0.30;;;;;;;;;;1828979;77;26260;-29
2021/11/24 11:39:16;;;;;;;0.30;0.30;;;;;;;;;;1832379;77;26330;-30
2021/11/24 11:41:44;;;;;;;0.30;0.30;;;;;;;;;;1830231;77;26326;-29
2021/11/24 11:44:13;;;;;;;0.30;0.30;;;;;;;;;;1832041;77;26273;-29
2021/11/24 11:46:42;;;;;;;0.35;0.30;;;;;;;;;;1834624;77;26351;-27
2021/11/24 11:49:14;;;;;;;1.10;0.20;;;;;;;;;;1832253;77;26742;-27
2021/11/24 11:51:43;;;;;;;1.40;0.42;;;;;;;;;;1834044;77;26323;-29
2021/11/24 11:54:11;;;;;;;0.10;0.10;;;;;;;;;;1836158;77;26827;-29
2021/11/24 11:56:41;;;;;;;0.17;0.17;;;;;;;;;;1832771;76;26732;-27
2021/11/24 11:59:10;;;;;;;0.28;0.28;;;;;;;;;;1835745;76;26328;-27
2021/11/24 12:01:45;;;;;;;0.20;0.20;;;;;;;;;;1837947;77;26346;-29
2021/11/24 12:04:17;;;;;;;0.30;0.30;;;;;;;;;;1831456;76;26301;-31
2021/11/24 12:06:55;;;;;;;0.30;0.30;;;;;;;;;;1822191;77;26269;-32
2021/11/24 12:09:28;;;;;;;0.33;0.10;;;;;;;;;;1835594;77;26296;-31
2021/11/24 12:12:09;;;;;;;0.57;0.30;;;;;;;;;;1836573;77;26304;-31
2021/11/24 12:14:41;;;;;;;0.28;0.28;;;;;;;;;;1828097;77;26781;-30
2021/11/24 12:17:13;;;;;;;0.20;0.20;;;;;;;;;;1837000;77;26768;-30
2021/11/24 12:19:40;;;;;;;0.33;0.30;;;;;;;;;;1798292;77;26338;-30
2021/11/24 12:22:07;;;;;;;0.30;0.30;;;;;;;;;;1826380;77;26324;-29
2021/11/24 12:24:39;;;;;;;0.40;0.30;;;;;;;;;;1830039;77;26269;-30
2021/11/24 12:27:07;;;;;;;0.20;0.20;;;;;;;;;;1829129;77;26288;-30
2021/11/24 12:29:47;;;;;;;0.20;0.20;;;;;;;;;;1837968;76;26835;-31
2021/11/24 12:32:19;;;;;;;0.30;0.30;;;;;;;;;;1834639;77;26271;-30
2021/11/24 12:34:48;;;;;;;0.30;0.30;;;;;;;;;;1840010;77;26289;-31
2021/11/24 12:37:21;;;;;;;1.20;0.30;;;;;;;;;;1833558;77;26314;-30
2021/11/24 12:39:49;;;;;;;0.47;0.47;;;;;;;;;;1840636;77;26256;-28
2021/11/24 12:42:18;;;;;;;0.28;0.28;;;;;;;;;;1829766;77;26260;-29
2021/11/24 12:44:50;;;;;;;0.30;0.20;;;;;;;;;;1840772;77;26280;-31
2021/11/24 12:47:19;;;;;;;0.30;0.28;;;;;;;;;;1836670;77;26268;-28
2021/11/24 12:49:47;;;;;;;0.30;0.30;;;;;;;;;;1839916;77;26276;-31
2021/11/24 12:52:15;;;;;;;0.33;0.33;;;;;;;;;;1838768;77;26429;-27
2021/11/24 12:54:43;;;;;;;0.20;0.20;;;;;;;;;;1831779;77;26248;-29
2021/11/24 12:57:11;;;;;;;0.30;0.30;;;;;;;;;;1839456;77;26327;-29
2021/11/24 12:59:42;;;;;;;0.30;0.30;;;;;;;;;;1840669;77;26558;-29
2021/11/24 13:02:10;;;;;;;0.13;0.13;;;;;;;;;;1837813;77;26449;-29
2021/11/24 13:04:39;;;;;;;0.30;0.30;;;;;;;;;;1839227;77;26459;-29
2021/11/24 13:07:07;;;;;;;0.30;0.30;;;;;;;;;;1844909;77;26282;-28
2021/11/24 13:09:39;;;;;;;0.30;0.30;;;;;;;;;;1835272;77;27375;-29
2021/11/24 13:12:11;;;;;;;0.30;0.30;;;;;;;;;;1836694;77;26245;-28
2021/11/24 13:14:40;;;;;;;0.20;0.20;;;;;;;;;;1841341;77;26311;-30
2021/11/24 13:17:09;;;;;;;0.40;0.40;;;;;;;;;;1838671;77;26269;-27
2021/11/24 13:19:38;;;;;;;0.30;0.30;;;;;;;;;;1830567;77;26862;-31
2021/11/24 13:22:06;;;;;;;0.33;0.33;;;;;;;;;;1833426;76;26244;-29
2021/11/24 13:24:34;;;;;;;0.30;0.30;;;;;;;;;;1839941;77;26522;-28
2021/11/24 13:27:02;;;;;;;0.72;0.40;;;;;;;;;;1794114;78;26337;-28
2021/11/24 13:29:31;;;;;;;0.30;0.30;;;;;;;;;;1807872;77;26363;-29
2021/11/24 13:32:10;;;;;;;0.40;0.40;;;;;;;;;;1823101;77;26432;-29
2021/11/24 13:34:38;;;;;;;0.40;0.40;;;;;;;;;;1835423;76;28078;-28
2021/11/24 13:37:05;;;;;;;0.60;0.60;;;;;;;;;;1829674;77;26884;-30
2021/11/24 13:39:34;;;;;;;0.40;0.40;;;;;;;;;;1834975;77;26280;-29
2021/11/24 13:42:08;;;;;;;0.47;0.42;;;;;;;;;;1835755;77;26205;-28
2021/11/24 13:44:37;;;;;;;1.30;0.50;;;;;;;;;;1816320;76;26218;-29
2021/11/24 13:47:06;;;;;;;1.50;0.50;;;;;;;;;;1829884;77;26288;-38
2021/11/24 13:49:33;;;;;;;0.50;0.50;;;;;;;;;;1816096;77;26291;-32
2021/11/24 13:52:05;;;;;;;0.75;0.75;;;;;;;;;;1838721;77;26202;-31
2021/11/24 13:54:33;;;;;;;0.60;0.50;;;;;;;;;;1833380;77;26264;-29
2021/11/24 13:57:04;;;;;;;1.85;0.55;;;;;;;;;;1837434;77;26319;-35
2021/11/24 13:59:33;;;;;;;2.12;0.60;;;;;;;;;;1832614;77;26264;-36
2021/11/24 14:02:04;;;;;;;4.85;0.80;;;;;;;;;;1837188;77;26638;-27
2021/11/24 14:04:36;;;;;;;2.15;0.98;;;;;;;;;;1830383;77;26319;-29
2021/11/24 14:07:05;;;;;;;5.15;0.98;;;;;;;;;;1831001;77;26261;-30
2021/11/24 14:09:34;;;;;;;2.17;0.70;;;;;;;;;;1834168;77;26285;-31
2021/11/24 14:12:09;;;;;;;1.55;0.60;;;;;;;;;;1835500;77;26260;-31
2021/11/24 14:14:51;;;;;;;1.37;0.70;;;;;;;;;;1833947;77;26371;-30
2021/11/24 14:17:32;;;;;;;2.12;0.70;;;;;;;;;;1837338;77;27028;-32
2021/11/24 14:20:01;;;;;;;3.55;0.70;;;;;;;;;;1838326;77;26300;-29
2021/11/24 14:22:35;;;;;;;3.95;1.00;;;;;;;;;;1839064;77;26252;-29
2021/11/24 14:25:03;;;;;;;2.52;0.70;;;;;;;;;;1837371;77;27661;-30
2021/11/24 14:27:31;;;;;;;3.80;0.70;;;;;;;;;;1837304;77;26457;-31
2021/11/24 14:29:59;;;;;;;3.02;0.65;;;;;;;;;;1838121;77;26423;-32
2021/11/24 14:32:26;;;;;;;2.12;0.60;;;;;;;;;;1837926;76;26253;-31
2021/11/24 14:34:53;;;;;;;2.37;0.63;;;;;;;;;;1823788;77;28804;-30
2021/11/24 14:37:20;;;;;;;0.42;0.42;;;;;;;;;;1838959;77;26252;-30
2021/11/24 14:39:48;;;;;;;2.70;0.65;;;;;;;;;;1839673;77;26288;-29
2021/11/24 14:42:15;;;;;;;0.40;0.40;;;;;;;;;;1832384;77;26273;-27
2021/11/24 14:44:42;;;;;;;1.25;0.65;;;;;;;;;;1833199;77;26296;-30
2021/11/24 14:47:10;;;;;;;1.22;0.50;;;;;;;;;;1831645;77;26339;-31
2021/11/24 14:49:37;;;;;;;1.85;0.57;;;;;;;;;;1813675;77;26452;-29
2021/11/24 14:52:05;;;;;;;1.45;0.50;;;;;;;;;;1812557;77;26268;-29